Flight Track Log - Related Links

Times and Time Zones

All times are in EST time to prevent confusion due to time zone crossing. See the N789EX flight status page for this flight to view local times or setup timezone preferences in your user account.

Time Position Orientation Groundspeed Altitude Reporting Facility
EST Latitude Longitude Course Direction KTS MPH feet Rate Location/Type
Fri 06:33:16 PM 47.9603 -119.6808 267° West 423 487 22,000  Level Seattle Center
Fri 06:38:44 PM 47.9310 -120.4750 267° West 341 392 22,000  Level FlightAware ADS-B
Fri 06:39:38 PM 47.9270 -120.6040 267° West 342 394 22,000 -436 Level FlightAware ADS-B
Fri 06:40:34 PM 47.9220 -120.7320 267° West 321 369 21,200 -1,500 Descending FlightAware ADS-B
Fri 06:41:30 PM 47.9180 -120.8570 267° West 330 380 19,200 -1,650 Descending FlightAware ADS-B
Fri 06:41:54 PM 47.9160 -120.9110 267° West 323 372 19,000 -429 Descending FlightAware ADS-B
Fri 06:42:26 PM 47.9140 -120.9820 268° West 318 366 18,800 -1,227 Descending FlightAware ADS-B
Fri 06:43:22 PM 47.9100 -121.1030 267° West 313 360 17,200 -1,904 Descending FlightAware ADS-B
Fri 06:44:10 PM 47.9060 -121.2070 267° West 311 358 15,500 -2,121 Descending FlightAware ADS-B
Fri 06:45:01 PM 47.9020 -121.3150 267° West 309 356 13,700 -1,980 Descending FlightAware ADS-B
Fri 06:45:50 PM 47.8980 -121.4180 267° West 304 350 12,200 -1,870 Descending FlightAware ADS-B
Fri 06:46:18 PM 47.8960 -121.4770 267° West 301 346 11,300 -1,714 Descending FlightAware ADS-B
Fri 06:47:14 PM 47.8910 -121.5900 266° West 289 333 9,800 -1,200 Descending FlightAware ADS-B
Fri 06:47:38 PM 47.8890 -121.6370 266° West 267 307 9,700 -1,038 Descending FlightAware ADS-B
Fri 06:48:06 PM 47.8860 -121.6870 265° West 263 303 8,900 -1,700 Descending FlightAware ADS-B
Fri 06:48:38 PM 47.8640 -121.7340 235° Southwest 265 305 8,000 -1,138 Descending FlightAware ADS-B
Fri 06:49:04 PM 47.8410 -121.7660 223° Southwest 259 298 7,800 -556 Descending FlightAware ADS-B
Fri 06:49:32 PM 47.8160 -121.8000 222° Southwest 257 296 7,500 -818 Descending FlightAware ADS-B
Fri 06:49:48 PM 47.8020 -121.8180 221° Southwest 255 293 7,200 -1,091 Descending FlightAware ADS-B
Fri 06:50:16 PM 47.7780 -121.8510 223° Southwest 244 281 6,700 -1,500 Descending FlightAware ADS-B
Fri 06:50:44 PM 47.7690 -121.8930 252° West 232 267 5,800 -2,100 Descending FlightAware ADS-B
Fri 06:51:16 PM 47.7670 -121.9440 267° West 230 265 4,600 -1,962 Descending FlightAware ADS-B
Fri 06:51:36 PM 47.7670 -121.9760 270° West 226 260 4,100 -1,375 Descending FlightAware ADS-B
Fri 06:52:04 PM 47.7660 -122.0180 268° West 220 253 3,500 -1,375 Descending FlightAware ADS-B
Fri 06:52:24 PM 47.7660 -122.0480 270° West 220 253 3,000 -875 Descending FlightAware ADS-B
Fri 06:52:52 PM 47.7660 -122.0900 270° West 220 253 2,800 -203 Descending FlightAware ADS-B
Fri 06:53:23 PM 47.7660 -122.1360 270° West 221 254 2,800  Level FlightAware ADS-B
Fri 06:53:56 PM 47.7650 -122.1870 268° West 219 252 2,800 -610 Level FlightAware ADS-B
Fri 06:54:22 PM 47.7650 -122.2260 270° West 217 250 2,200 -960 Descending FlightAware ADS-B
Fri 06:54:46 PM 47.7640 -122.2620 268° West 212 244 2,000 -250 Descending FlightAware ADS-B
Fri 06:55:10 PM 47.7570 -122.2920 251° West 198 228 2,000  Level FlightAware ADS-B
Fri 06:55:42 PM 47.7340 -122.3170 216° Southwest 195 224 2,000 -83 Level FlightAware ADS-B
Fri 06:56:22 PM 47.7020 -122.3410 207° Southwest 191 220 1,900 -250 Descending FlightAware ADS-B
Fri 06:56:54 PM 47.6760 -122.3560 201° Southwest 190 219 1,700 -387 Descending FlightAware ADS-B
Fri 06:57:24 PM 47.6510 -122.3700 201° Southwest 188 216 1,500 -333 Descending FlightAware ADS-B
Fri 06:57:48 PM 47.6330 -122.3760 193° South 169 194 1,400 -231 Descending FlightAware ADS-B
Fri 06:58:16 PM 47.6110 -122.3710 171° South 166 191 1,300 -484 Descending FlightAware ADS-B
Fri 06:58:50 PM 47.5890 -122.3520 150° Southeast 159 183 900 -724 Descending FlightAware ADS-B
Fri 06:59:14 PM 47.5730 -122.3390 151° Southeast 161 185 600 -714 Descending FlightAware ADS-B
Fri 06:59:32 PM 47.5640 -122.3310 149° Southeast 160 184 400 -267 Descending FlightAware ADS-B
Fri 06:59:59 PM 47.5490 -122.3180 150° Southeast 160 184 400 -250 Level FlightAware ADS-B
Fri 07:00:44 PM 47.5169 -122.2928 150° Southeast 158 182 100 -400 Descending Seattle Center

Login

Don't have an account? Register now (free) for customized features, flight alerts, and more!